Time;durP1;ratioP1;P1;durP2;ratioP2;P2;SDS_P1;SDS_P2;PMS_P1;PMS_P2;Temp;Humidity;BMP_temperature;BMP_pressure;BME280_temperature;BME280_humidity;BME280_pressure;Samples;Min_cycle;Max_cycle;Signal;HPM_P1;HPM_P2
2023/07/31 00:00:20;;;;;;;1.65;1.55;;;21.00;99.90;;;;;;5090996;28;20197;-76
2023/07/31 00:02:47;;;;;;;1.92;1.83;;;20.90;99.90;;;;;;5086835;28;20226;-76
2023/07/31 00:05:14;;;;;;;1.90;1.70;;;20.90;99.90;;;;;;5090898;28;20248;-75
2023/07/31 00:07:41;;;;;;;1.70;1.60;;;20.80;99.90;;;;;;5091758;28;20245;-76
2023/07/31 00:10:09;;;;;;;1.83;1.73;;;20.90;99.90;;;;;;5083641;28;20543;-77
2023/07/31 00:12:36;;;;;;;1.90;1.80;;;20.80;99.90;;;;;;5088818;28;20232;-76
2023/07/31 00:15:03;;;;;;;1.92;1.70;;;20.70;99.90;;;;;;5090729;28;20239;-77
2023/07/31 00:17:31;;;;;;;2.05;1.80;;;20.70;99.90;;;;;;5087859;28;20256;-76
2023/07/31 00:19:58;;;;;;;1.70;1.60;;;20.70;99.90;;;;;;5093422;28;20202;-77
2023/07/31 00:22:25;;;;;;;2.03;1.55;;;20.60;99.90;;;;;;5089264;28;20257;-78
2023/07/31 00:24:52;;;;;;;1.70;1.60;;;20.60;99.90;;;;;;5091030;28;20280;-76
2023/07/31 00:27:19;;;;;;;2.50;2.03;;;20.50;99.90;;;;;;5089685;28;20347;-76
2023/07/31 00:29:46;;;;;;;1.27;1.27;;;20.50;99.90;;;;;;5088729;28;20700;-75
2023/07/31 00:32:15;;;;;;;1.23;1.23;;;20.50;99.90;;;;;;5089178;28;20243;-80
2023/07/31 00:34:43;;;;;;;1.70;1.60;;;20.40;99.90;;;;;;5089319;28;20298;-76
2023/07/31 00:37:10;;;;;;;1.80;1.70;;;20.40;99.90;;;;;;5090624;28;20719;-77
2023/07/31 00:39:37;;;;;;;1.90;1.80;;;20.40;99.90;;;;;;5089411;28;20223;-77
2023/07/31 00:42:05;;;;;;;1.80;1.70;;;20.40;99.90;;;;;;5088664;28;20624;-76
2023/07/31 00:44:31;;;;;;;1.70;1.60;;;20.30;99.90;;;;;;5080162;28;20202;-76
2023/07/31 00:46:59;;;;;;;1.58;1.48;;;20.30;99.90;;;;;;5088349;28;20300;-76
2023/07/31 00:49:26;;;;;;;1.90;1.80;;;20.20;99.90;;;;;;5086535;28;20232;-77
2023/07/31 00:51:57;;;;;;;1.80;1.70;;;20.30;99.90;;;;;;5089399;28;20610;-76
2023/07/31 00:54:24;;;;;;;2.97;1.90;;;20.30;99.90;;;;;;5084228;28;20211;-77
2023/07/31 00:56:53;;;;;;;1.70;1.60;;;20.30;99.90;;;;;;5088727;28;20218;-76
2023/07/31 00:59:20;;;;;;;1.95;1.75;;;20.20;99.90;;;;;;5085923;28;20247;-76
2023/07/31 01:01:48;;;;;;;1.83;1.73;;;20.00;99.90;;;;;;5091035;28;20198;-76
2023/07/31 01:04:15;;;;;;;1.50;1.40;;;20.00;99.90;;;;;;5086391;28;20537;-76
2023/07/31 01:06:49;;;;;;;1.55;1.45;;;20.00;99.90;;;;;;5084615;28;20246;-76
2023/07/31 01:09:30;;;;;;;3.17;1.60;;;20.00;99.90;;;;;;5089521;28;20218;-76
2023/07/31 01:12:01;;;;;;;1.63;1.52;;;20.00;99.90;;;;;;5089823;28;20189;-77
2023/07/31 01:14:28;;;;;;;1.70;1.60;;;20.00;99.90;;;;;;5089707;28;20197;-77
2023/07/31 01:16:55;;;;;;;1.52;1.42;;;20.00;99.90;;;;;;5087991;28;20696;-76
2023/07/31 01:19:24;;;;;;;1.60;1.50;;;20.00;99.90;;;;;;5086905;28;20243;-77
2023/07/31 01:22:16;;;;;;;1.30;1.30;;;20.00;99.90;;;;;;5090116;28;20236;-77
2023/07/31 01:24:56;;;;;;;1.60;1.50;;;20.00;99.90;;;;;;5087320;28;20202;-77
2023/07/31 01:27:26;;;;;;;1.50;1.40;;;20.00;99.90;;;;;;5083062;28;20840;-77
2023/07/31 01:30:01;;;;;;;1.67;1.58;;;19.90;99.90;;;;;;5091076;28;20214;-76
2023/07/31 01:32:30;;;;;;;1.73;1.63;;;19.90;99.90;;;;;;5089995;28;20247;-77
2023/07/31 01:35:00;;;;;;;1.70;1.60;;;19.90;99.90;;;;;;5091983;28;20204;-76
2023/07/31 01:37:30;;;;;;;1.70;1.60;;;20.00;99.90;;;;;;5090364;28;20252;-76
2023/07/31 01:39:57;;;;;;;1.65;1.55;;;20.00;99.90;;;;;;5090208;28;20205;-76
2023/07/31 01:42:25;;;;;;;1.50;1.40;;;20.00;99.90;;;;;;5092316;28;20201;-77
2023/07/31 01:44:52;;;;;;;1.58;1.48;;;19.90;99.90;;;;;;5089264;28;20236;-77
2023/07/31 01:47:19;;;;;;;1.63;1.52;;;19.90;99.90;;;;;;5090880;28;20859;-76
2023/07/31 01:49:46;;;;;;;1.65;1.52;;;19.90;99.90;;;;;;5091317;28;20309;-76
2023/07/31 01:52:13;;;;;;;1.60;1.50;;;19.80;99.90;;;;;;5090513;28;20201;-76
2023/07/31 01:54:40;;;;;;;1.70;1.60;;;19.80;99.90;;;;;;5088841;28;20228;-77
2023/07/31 01:57:08;;;;;;;1.90;1.60;;;19.90;99.90;;;;;;5093181;28;20267;-77
2023/07/31 01:59:36;;;;;;;1.50;1.40;;;19.80;99.90;;;;;;5087089;28;20185;-76
2023/07/31 02:02:03;;;;;;;1.67;1.58;;;19.80;99.90;;;;;;5093254;28;20193;-77
2023/07/31 02:04:30;;;;;;;1.50;1.40;;;19.70;99.90;;;;;;5087796;28;20197;-76
2023/07/31 02:06:57;;;;;;;2.55;1.52;;;19.60;99.90;;;;;;5090314;28;20308;-76
2023/07/31 02:09:24;;;;;;;1.77;1.60;;;19.60;99.90;;;;;;5090828;28;20305;-76
2023/07/31 02:11:51;;;;;;;1.80;1.70;;;19.60;99.90;;;;;;5091345;28;20202;-78
2023/07/31 02:14:18;;;;;;;2.00;1.80;;;19.60;99.90;;;;;;5091152;28;20193;-76
2023/07/31 02:16:46;;;;;;;1.77;1.60;;;19.60;99.90;;;;;;5094164;28;20213;-76
2023/07/31 02:19:13;;;;;;;1.55;1.45;;;19.60;99.90;;;;;;5090980;28;20302;-76
2023/07/31 02:21:40;;;;;;;1.83;1.73;;;19.60;99.90;;;;;;5092719;28;20648;-77
2023/07/31 02:24:07;;;;;;;1.35;1.25;;;19.60;99.90;;;;;;5091422;28;20185;-76
2023/07/31 02:26:34;;;;;;;2.40;1.50;;;19.60;99.90;;;;;;5087851;28;20249;-77
2023/07/31 02:29:01;;;;;;;1.52;1.42;;;19.60;99.90;;;;;;5086585;28;20626;-77
2023/07/31 02:31:28;;;;;;;1.55;1.45;;;19.50;99.90;;;;;;5091681;28;20251;-77
2023/07/31 02:33:56;;;;;;;2.40;1.83;;;19.50;99.90;;;;;;5091387;28;20240;-77
2023/07/31 02:36:23;;;;;;;1.70;1.60;;;19.40;99.90;;;;;;5092134;28;20308;-76
2023/07/31 02:38:50;;;;;;;2.25;1.70;;;19.40;99.90;;;;;;5085722;28;20243;-78
2023/07/31 02:41:17;;;;;;;1.40;1.30;;;19.30;99.90;;;;;;5084116;28;20229;-77
2023/07/31 02:43:44;;;;;;;1.70;1.60;;;19.30;99.90;;;;;;5082850;28;20197;-76
2023/07/31 02:46:11;;;;;;;2.08;1.75;;;19.30;99.90;;;;;;5086069;28;20317;-76
2023/07/31 02:48:38;;;;;;;1.35;1.30;;;19.30;99.90;;;;;;5089453;28;20695;-77
2023/07/31 02:51:06;;;;;;;1.75;1.48;;;19.30;99.90;;;;;;5091010;28;20198;-76
2023/07/31 02:53:33;;;;;;;1.65;1.55;;;19.40;99.90;;;;;;5088497;28;20209;-77
2023/07/31 02:56:00;;;;;;;2.35;1.73;;;19.40;99.90;;;;;;5088453;28;20261;-77
2023/07/31 02:58:27;;;;;;;2.10;1.80;;;19.40;99.90;;;;;;5090267;28;20679;-77
2023/07/31 03:00:53;;;;;;;1.58;1.48;;;19.40;99.90;;;;;;5090205;28;20202;-77
2023/07/31 03:03:20;;;;;;;1.70;1.60;;;19.40;99.90;;;;;;5087314;28;20251;-76
2023/07/31 03:05:47;;;;;;;3.25;1.35;;;19.40;99.90;;;;;;5087909;28;20329;-77
2023/07/31 03:08:15;;;;;;;1.70;1.60;;;19.40;99.90;;;;;;5089461;28;20244;-78
2023/07/31 03:10:42;;;;;;;1.60;1.50;;;19.30;99.90;;;;;;5085464;28;20301;-77
2023/07/31 03:13:09;;;;;;;1.83;1.73;;;19.20;99.90;;;;;;5090849;28;20201;-76
2023/07/31 03:15:36;;;;;;;1.60;1.50;;;19.20;99.90;;;;;;5089592;28;20247;-77
2023/07/31 03:18:03;;;;;;;1.50;1.40;;;19.10;99.90;;;;;;5094919;28;20225;-76
2023/07/31 03:20:30;;;;;;;1.65;1.55;;;19.10;99.90;;;;;;5088041;28;20656;-77
2023/07/31 03:22:57;;;;;;;1.65;1.55;;;19.10;99.90;;;;;;5087953;28;20201;-77
2023/07/31 03:25:25;;;;;;;1.75;1.40;;;19.00;99.90;;;;;;5094075;28;20229;-79
2023/07/31 03:27:52;;;;;;;1.83;1.63;;;18.90;99.90;;;;;;5086781;28;20247;-77
2023/07/31 03:30:19;;;;;;;1.80;1.40;;;18.90;99.90;;;;;;5085787;28;20620;-77
2023/07/31 03:32:46;;;;;;;1.50;1.40;;;18.90;99.90;;;;;;5086067;28;20225;-77
2023/07/31 03:35:13;;;;;;;1.70;1.60;;;18.90;99.90;;;;;;5091806;28;20210;-76
2023/07/31 03:37:40;;;;;;;2.72;1.45;;;18.90;99.90;;;;;;5087194;28;20218;-77
2023/07/31 03:40:08;;;;;;;1.75;1.60;;;19.00;99.90;;;;;;5083461;28;20218;-78
2023/07/31 03:42:36;;;;;;;1.73;1.63;;;19.10;99.90;;;;;;5086336;28;20635;-76
2023/07/31 03:45:04;;;;;;;1.70;1.60;;;19.00;99.90;;;;;;5084599;28;20241;-77
2023/07/31 03:47:31;;;;;;;1.70;1.60;;;19.00;99.90;;;;;;5086460;28;20298;-76
2023/07/31 03:49:58;;;;;;;1.63;1.52;;;19.00;99.90;;;;;;5093594;28;20498;-77
2023/07/31 03:52:25;;;;;;;1.70;1.60;;;19.00;99.90;;;;;;5092309;28;20197;-77
2023/07/31 03:54:51;;;;;;;1.98;1.70;;;18.90;99.90;;;;;;5096232;28;20200;-77
2023/07/31 03:57:18;;;;;;;1.50;1.40;;;18.80;99.90;;;;;;5087522;28;20256;-76
2023/07/31 03:59:47;;;;;;;1.60;1.50;;;18.80;99.90;;;;;;5081648;28;20234;-76
2023/07/31 04:02:14;;;;;;;1.92;1.70;;;18.80;99.90;;;;;;5085607;28;20672;-77
2023/07/31 04:04:41;;;;;;;1.60;1.50;;;18.80;99.90;;;;;;5092699;28;20744;-79
2023/07/31 04:07:08;;;;;;;1.83;1.73;;;18.90;99.90;;;;;;5089296;28;20756;-76
2023/07/31 04:09:35;;;;;;;1.90;1.80;;;18.80;99.90;;;;;;5091641;28;20237;-76
2023/07/31 04:12:02;;;;;;;1.77;1.67;;;18.80;99.90;;;;;;5083480;28;20237;-77
2023/07/31 04:14:29;;;;;;;2.42;1.55;;;18.80;99.90;;;;;;5090011;28;20198;-76
2023/07/31 04:16:57;;;;;;;1.70;1.60;;;18.70;99.90;;;;;;5086672;28;20658;-76
2023/07/31 04:19:24;;;;;;;2.25;1.85;;;18.70;99.90;;;;;;5086080;28;20236;-77
2023/07/31 04:21:51;;;;;;;1.70;1.60;;;18.70;99.90;;;;;;5082777;28;20198;-77
2023/07/31 04:24:24;;;;;;;1.80;1.70;;;18.70;99.90;;;;;;5086615;28;20205;-77
2023/07/31 04:26:50;;;;;;;1.45;1.35;;;18.70;99.90;;;;;;5083101;28;20271;-76
2023/07/31 04:29:17;;;;;;;1.80;1.70;;;18.70;99.90;;;;;;5086577;28;20340;-76
2023/07/31 04:31:44;;;;;;;1.80;1.70;;;18.70;99.90;;;;;;5091737;28;20250;-77
2023/07/31 04:34:13;;;;;;;1.70;1.60;;;18.80;99.90;;;;;;5087115;28;20679;-77
2023/07/31 04:36:40;;;;;;;1.50;1.40;;;18.90;99.90;;;;;;5089494;28;20283;-76
2023/07/31 04:39:07;;;;;;;1.70;1.60;;;18.90;99.90;;;;;;5090542;28;20630;-77
2023/07/31 04:41:33;;;;;;;1.75;1.65;;;18.90;99.90;;;;;;5085869;28;20233;-77
2023/07/31 04:44:00;;;;;;;1.65;1.55;;;18.90;99.90;;;;;;5083890;28;20263;-77
2023/07/31 04:46:27;;;;;;;1.80;1.70;;;18.90;99.90;;;;;;5094666;28;20722;-77
2023/07/31 04:48:54;;;;;;;1.60;1.50;;;18.90;99.90;;;;;;5085099;28;20236;-76
2023/07/31 04:51:23;;;;;;;1.75;1.65;;;18.90;99.90;;;;;;5090698;28;20202;-77
2023/07/31 04:53:50;;;;;;;1.70;1.45;;;18.90;99.90;;;;;;5081257;28;20612;-77
2023/07/31 04:56:17;;;;;;;1.75;1.65;;;18.90;99.90;;;;;;5086207;28;20221;-77
2023/07/31 04:58:44;;;;;;;1.80;1.70;;;18.90;99.90;;;;;;5087266;28;20205;-75
2023/07/31 05:01:11;;;;;;;1.63;1.52;;;18.90;99.90;;;;;;5091266;28;20232;-77
2023/07/31 05:03:38;;;;;;;1.70;1.60;;;18.80;99.90;;;;;;5093873;28;20197;-76
2023/07/31 05:06:05;;;;;;;1.50;1.40;;;19.00;99.90;;;;;;5095536;28;20694;-76
2023/07/31 05:08:33;;;;;;;1.40;1.30;;;19.30;99.90;;;;;;5090362;28;20228;-76
2023/07/31 05:11:00;;;;;;;1.55;1.45;;;19.50;99.90;;;;;;5080485;28;20271;-77
2023/07/31 05:13:27;;;;;;;1.50;1.40;;;19.70;99.90;;;;;;5086733;28;20194;-76
2023/07/31 05:15:54;;;;;;;1.70;1.60;;;19.80;99.90;;;;;;5093563;28;20222;-76
2023/07/31 05:18:21;;;;;;;1.77;1.67;;;20.00;99.90;;;;;;5086977;28;20240;-77
2023/07/31 05:20:48;;;;;;;1.70;1.60;;;20.20;99.90;;;;;;5087074;28;20225;-77
2023/07/31 05:23:15;;;;;;;2.00;1.90;;;20.20;99.90;;;;;;5082965;28;20228;-76
2023/07/31 05:25:43;;;;;;;2.38;1.80;;;20.30;99.90;;;;;;5082660;28;20253;-76
2023/07/31 05:28:10;;;;;;;1.80;1.70;;;20.40;99.90;;;;;;5089114;28;20220;-77
2023/07/31 05:30:37;;;;;;;1.85;1.75;;;20.50;99.90;;;;;;5087334;28;20216;-78
2023/07/31 05:33:04;;;;;;;3.03;2.00;;;20.70;99.90;;;;;;5089554;28;20571;-77
2023/07/31 05:35:31;;;;;;;2.85;2.00;;;20.80;99.90;;;;;;5089638;28;20939;-76
2023/07/31 05:37:58;;;;;;;3.17;2.03;;;20.90;99.90;;;;;;5088731;28;20619;-76
2023/07/31 05:40:25;;;;;;;2.00;1.90;;;21.00;99.90;;;;;;5089719;28;20273;-78
2023/07/31 05:42:53;;;;;;;2.25;2.05;;;21.00;99.90;;;;;;5085425;28;20226;-77
2023/07/31 05:45:20;;;;;;;1.88;1.77;;;21.00;99.90;;;;;;5091107;28;20251;-76
2023/07/31 05:47:47;;;;;;;1.90;1.80;;;21.20;99.90;;;;;;5083969;28;20236;-76
2023/07/31 05:50:14;;;;;;;2.33;2.13;;;21.30;99.90;;;;;;5082853;28;20225;-77
2023/07/31 05:52:42;;;;;;;2.13;1.73;;;21.40;99.90;;;;;;5085001;28;20201;-76
2023/07/31 05:55:09;;;;;;;1.90;1.70;;;21.50;99.90;;;;;;5096682;28;20198;-76
2023/07/31 05:57:36;;;;;;;3.33;2.00;;;21.60;99.90;;;;;;5092583;28;20218;-77
2023/07/31 06:00:06;;;;;;;2.53;2.15;;;21.50;99.90;;;;;;5097440;28;20714;-77
2023/07/31 06:02:36;;;;;;;1.90;1.80;;;21.30;99.90;;;;;;5088195;28;20576;-78
2023/07/31 06:05:03;;;;;;;2.50;2.30;;;21.20;99.90;;;;;;5094082;28;20201;-76
2023/07/31 06:07:30;;;;;;;2.20;2.00;;;21.30;99.90;;;;;;5086868;28;20226;-76
2023/07/31 06:10:02;;;;;;;2.45;2.25;;;21.40;99.90;;;;;;5085038;28;20249;-76
2023/07/31 06:12:29;;;;;;;3.67;2.13;;;21.40;99.90;;;;;;5083656;28;20194;-77
2023/07/31 06:14:56;;;;;;;4.00;2.10;;;21.50;99.90;;;;;;5090537;28;20194;-76
2023/07/31 06:17:25;;;;;;;2.03;1.80;;;21.50;99.90;;;;;;5090536;28;20221;-77
2023/07/31 06:19:53;;;;;;;2.70;1.90;;;21.50;99.90;;;;;;5090808;28;20190;-76
2023/07/31 06:22:20;;;;;;;2.03;1.92;;;21.60;99.90;;;;;;5089240;28;20232;-76
2023/07/31 06:24:47;;;;;;;2.92;2.35;;;21.60;99.90;;;;;;5093058;28;20232;-76
2023/07/31 06:27:14;;;;;;;2.28;2.08;;;21.60;99.90;;;;;;5097126;28;20218;-77
2023/07/31 06:29:42;;;;;;;2.67;2.00;;;21.70;99.90;;;;;;5095099;28;20201;-76
2023/07/31 06:32:09;;;;;;;4.10;2.30;;;21.90;99.90;;;;;;5093329;28;20233;-77
2023/07/31 06:34:37;;;;;;;2.22;2.03;;;22.10;99.90;;;;;;5097136;28;20207;-76
2023/07/31 06:37:04;;;;;;;2.15;1.80;;;21.90;99.90;;;;;;5093629;28;20274;-76
2023/07/31 06:39:31;;;;;;;2.40;2.20;;;21.60;99.90;;;;;;5087191;28;20659;-76
2023/07/31 06:41:58;;;;;;;1.95;1.83;;;21.40;99.90;;;;;;5093441;28;20198;-76
2023/07/31 06:44:25;;;;;;;2.28;2.08;;;21.40;99.90;;;;;;5088540;28;20737;-76
2023/07/31 06:46:52;;;;;;;1.90;1.80;;;21.40;99.90;;;;;;5096852;28;20223;-76
2023/07/31 06:49:19;;;;;;;2.58;2.05;;;21.50;99.90;;;;;;5088066;28;20239;-75
2023/07/31 06:51:48;;;;;;;3.70;2.05;;;21.60;99.90;;;;;;5094488;28;20581;-76
2023/07/31 06:54:15;;;;;;;2.30;2.10;;;21.50;99.90;;;;;;5090055;28;20762;-79
2023/07/31 06:56:41;;;;;;;2.50;2.08;;;21.30;99.90;;;;;;5086200;28;20210;-76
2023/07/31 06:59:08;;;;;;;3.67;2.53;;;21.00;99.90;;;;;;5083699;28;20284;-77
2023/07/31 07:01:36;;;;;;;5.30;2.30;;;20.90;99.90;;;;;;5084259;28;20289;-78
2023/07/31 07:04:02;;;;;;;3.00;2.42;;;20.90;99.90;;;;;;5083188;28;20221;-77
2023/07/31 07:06:29;;;;;;;2.50;2.30;;;21.10;99.90;;;;;;5088877;28;20253;-78
2023/07/31 07:08:58;;;;;;;2.95;2.05;;;21.10;99.90;;;;;;5080595;28;20228;-77
2023/07/31 07:11:25;;;;;;;1.90;1.70;;;21.10;99.90;;;;;;5083561;28;20775;-77
2023/07/31 07:13:52;;;;;;;2.83;1.83;;;21.10;99.90;;;;;;5084847;28;20290;-77
2023/07/31 07:16:18;;;;;;;2.97;1.67;;;21.10;99.90;;;;;;5085501;28;20316;-77
2023/07/31 07:18:45;;;;;;;2.40;2.20;;;21.00;99.90;;;;;;5084557;28;20195;-77
2023/07/31 07:21:15;;;;;;;2.28;2.08;;;20.90;99.90;;;;;;5083468;28;20523;-78
2023/07/31 07:23:42;;;;;;;2.60;1.98;;;20.90;99.90;;;;;;5082791;28;20198;-78
2023/07/31 07:26:10;;;;;;;3.75;1.88;;;20.90;99.90;;;;;;5084764;28;20270;-77
2023/07/31 07:28:38;;;;;;;1.90;1.80;;;21.10;99.90;;;;;;5083404;28;20236;-77
2023/07/31 07:31:05;;;;;;;2.40;2.20;;;21.40;99.90;;;;;;5087972;28;20214;-78
2023/07/31 07:33:31;;;;;;;2.22;2.03;;;21.60;99.90;;;;;;5086894;28;20655;-78
2023/07/31 07:36:01;;;;;;;4.68;2.30;;;21.70;99.90;;;;;;5083231;28;20245;-78
2023/07/31 07:38:28;;;;;;;2.20;2.00;;;21.90;99.90;;;;;;5084389;28;20232;-78
2023/07/31 07:40:55;;;;;;;2.67;2.28;;;21.90;99.90;;;;;;5083097;28;20700;-79
2023/07/31 07:43:23;;;;;;;3.65;2.20;;;21.90;99.90;;;;;;5080096;28;20292;-78
2023/07/31 07:45:51;;;;;;;4.03;2.22;;;21.80;99.90;;;;;;5085323;28;20614;-77
2023/07/31 07:48:18;;;;;;;2.65;1.60;;;21.70;99.90;;;;;;5086549;28;20746;-78
2023/07/31 07:50:44;;;;;;;2.63;1.92;;;21.80;99.90;;;;;;5080757;28;20225;-77
2023/07/31 07:53:11;;;;;;;2.95;2.25;;;21.70;99.90;;;;;;5087339;28;20205;-78
2023/07/31 07:55:38;;;;;;;3.70;2.35;;;21.70;99.90;;;;;;5084010;28;20221;-79
2023/07/31 07:58:05;;;;;;;2.75;2.10;;;21.60;99.90;;;;;;5086095;28;20231;-78
2023/07/31 08:00:34;;;;;;;2.95;2.17;;;21.50;99.90;;;;;;5079959;28;20267;-77
2023/07/31 08:03:00;;;;;;;2.13;1.92;;;21.60;99.90;;;;;;5084709;28;20679;-78
2023/07/31 08:05:27;;;;;;;3.88;2.30;;;21.70;99.90;;;;;;5083172;28;20201;-77
2023/07/31 08:07:54;;;;;;;2.30;2.00;;;22.00;99.90;;;;;;5078291;28;20205;-76
2023/07/31 08:10:21;;;;;;;2.67;2.00;;;22.20;99.90;;;;;;5078390;28;20213;-76
2023/07/31 08:12:48;;;;;;;2.80;2.50;;;22.50;99.90;;;;;;5075533;28;20194;-79
2023/07/31 08:15:15;;;;;;;3.05;2.28;;;22.80;99.90;;;;;;5080645;28;20233;-78
2023/07/31 08:17:44;;;;;;;2.80;2.60;;;23.10;99.90;;;;;;5077176;28;20198;-77
2023/07/31 08:20:12;;;;;;;2.88;2.35;;;23.10;99.90;;;;;;5081243;28;20322;-78
2023/07/31 08:22:39;;;;;;;2.80;1.90;;;23.00;99.90;;;;;;5086839;28;20642;-77
2023/07/31 08:25:07;;;;;;;2.88;2.20;;;23.10;99.90;;;;;;5080366;28;20308;-77
2023/07/31 08:27:34;;;;;;;2.45;2.08;;;23.50;99.90;;;;;;5085347;28;20337;-78
2023/07/31 08:30:01;;;;;;;2.47;2.00;;;23.70;99.90;;;;;;5080281;28;20198;-77
2023/07/31 08:32:28;;;;;;;3.13;1.80;;;24.00;99.90;;;;;;5077662;28;20280;-77
2023/07/31 08:34:56;;;;;;;2.20;2.03;;;24.10;99.90;;;;;;5082015;28;20241;-77
2023/07/31 08:37:23;;;;;;;2.35;2.15;;;24.10;99.90;;;;;;5075933;28;20286;-78
2023/07/31 08:39:50;;;;;;;2.15;2.05;;;24.20;99.90;;;;;;5077219;28;20202;-77
2023/07/31 08:42:17;;;;;;;3.30;2.10;;;24.30;99.90;;;;;;5080404;28;20664;-77
2023/07/31 08:44:44;;;;;;;2.70;2.50;;;24.30;99.90;;;;;;5080636;28;20764;-79
2023/07/31 08:47:12;;;;;;;3.05;2.20;;;24.20;99.90;;;;;;5080983;28;20244;-78
2023/07/31 08:49:40;;;;;;;2.45;2.20;;;24.20;99.90;;;;;;5077254;28;20206;-77
2023/07/31 08:52:09;;;;;;;2.55;2.30;;;24.40;99.90;;;;;;5082018;28;20709;-77
2023/07/31 08:54:36;;;;;;;4.03;2.67;;;24.50;99.90;;;;;;5073304;28;20241;-79
2023/07/31 08:57:04;;;;;;;2.80;2.13;;;24.60;99.90;;;;;;5075745;28;20274;-76
2023/07/31 08:59:32;;;;;;;2.35;2.15;;;24.60;99.90;;;;;;5070212;28;20270;-77
2023/07/31 09:02:04;;;;;;;3.53;2.42;;;24.80;99.90;;;;;;5072662;28;20236;-77
2023/07/31 09:04:32;;;;;;;2.50;1.90;;;24.90;99.90;;;;;;5072168;28;20251;-77
2023/07/31 09:07:03;;;;;;;3.08;2.42;;;24.90;99.90;;;;;;5074421;28;20787;-77
2023/07/31 09:09:31;;;;;;;2.65;2.03;;;24.90;99.90;;;;;;5081304;28;20227;-79
2023/07/31 09:11:59;;;;;;;2.50;2.30;;;25.00;99.90;;;;;;5080474;28;20298;-78
2023/07/31 09:14:27;;;;;;;2.45;2.25;;;25.00;99.90;;;;;;5076815;28;20233;-79
2023/07/31 09:16:55;;;;;;;3.85;2.42;;;25.00;99.90;;;;;;5075472;28;20245;-79
2023/07/31 09:19:27;;;;;;;3.53;2.30;;;25.10;99.90;;;;;;5078116;28;20210;-77
2023/07/31 09:21:54;;;;;;;2.60;2.40;;;25.30;99.90;;;;;;5077318;28;20284;-79
2023/07/31 09:24:27;;;;;;;3.42;2.28;;;25.40;99.90;;;;;;5074010;28;20235;-78
2023/07/31 09:26:57;;;;;;;2.90;2.13;;;25.60;99.90;;;;;;5083503;28;20370;-78
2023/07/31 09:29:24;;;;;;;2.45;1.90;;;25.60;99.90;;;;;;5080330;28;20197;-79
2023/07/31 09:31:51;;;;;;;2.65;2.45;;;25.70;99.90;;;;;;5080262;28;20214;-79
2023/07/31 09:34:18;;;;;;;3.72;2.03;;;25.70;99.90;;;;;;5080631;28;20847;-79
2023/07/31 09:36:47;;;;;;;2.70;2.50;;;26.00;99.90;;;;;;5082923;28;20452;-78
2023/07/31 09:39:16;;;;;;;2.35;2.15;;;26.00;99.90;;;;;;5081330;28;20209;-79
2023/07/31 09:41:45;;;;;;;4.50;2.50;;;26.10;99.90;;;;;;5080576;28;20198;-78
2023/07/31 09:44:13;;;;;;;2.20;2.00;;;26.00;99.90;;;;;;5079406;28;20838;-77
2023/07/31 09:46:40;;;;;;;3.92;2.05;;;25.90;99.90;;;;;;5075242;28;20214;-81
2023/07/31 09:49:09;;;;;;;2.47;2.00;;;26.10;99.90;;;;;;5077059;28;20254;-79
2023/07/31 09:51:38;;;;;;;2.10;1.90;;;26.40;99.90;;;;;;5082113;28;20226;-80
2023/07/31 09:54:15;;;;;;;2.58;2.38;;;26.50;99.90;;;;;;5076753;28;20197;-78
2023/07/31 09:56:44;;;;;;;2.85;2.55;;;26.50;99.90;;;;;;5081667;28;20213;-79
2023/07/31 09:59:14;;;;;;;2.40;2.20;;;26.80;99.90;;;;;;5081708;28;20223;-79
2023/07/31 10:01:42;;;;;;;2.05;1.95;;;26.90;99.90;;;;;;5079906;28;20582;-76
2023/07/31 10:04:12;;;;;;;2.95;1.95;;;26.70;99.90;;;;;;5077839;28;20201;-79
2023/07/31 10:06:41;;;;;;;3.97;2.40;;;26.60;99.90;;;;;;5073385;28;20222;-79
2023/07/31 10:09:11;;;;;;;2.35;2.15;;;26.70;99.90;;;;;;5079864;28;20650;-78
2023/07/31 10:11:43;;;;;;;4.28;1.90;;;26.60;99.90;;;;;;5078648;28;20304;-77
2023/07/31 10:14:14;;;;;;;3.15;2.30;;;26.40;99.90;;;;;;5078322;28;20240;-78
2023/07/31 10:16:43;;;;;;;2.20;2.03;;;26.40;99.90;;;;;;5078680;28;20279;-79
2023/07/31 10:19:10;;;;;;;1.90;1.80;;;26.60;99.90;;;;;;5080754;28;20237;-78
2023/07/31 10:21:38;;;;;;;2.50;2.28;;;26.80;99.90;;;;;;5078499;28;20285;-80
2023/07/31 10:24:06;;;;;;;2.28;2.10;;;27.10;99.90;;;;;;5075151;28;20205;-77
2023/07/31 10:26:34;;;;;;;2.83;2.63;;;27.20;99.90;;;;;;5077073;28;20287;-79
2023/07/31 10:29:01;;;;;;;2.22;2.03;;;27.30;99.90;;;;;;5078706;28;20198;-79
2023/07/31 10:31:29;;;;;;;2.25;2.05;;;27.30;99.90;;;;;;5073508;28;20236;-79
2023/07/31 10:34:00;;;;;;;2.35;2.15;;;27.40;99.90;;;;;;5082741;28;20205;-79
2023/07/31 10:36:27;;;;;;;2.60;2.40;;;27.30;99.90;;;;;;5078038;28;20229;-78
2023/07/31 10:38:56;;;;;;;2.78;2.20;;;27.40;99.90;;;;;;5082981;28;20208;-79
2023/07/31 10:41:30;;;;;;;2.33;2.13;;;27.60;99.90;;;;;;5080685;28;20193;-79
2023/07/31 10:43:59;;;;;;;2.45;2.25;;;27.60;99.90;;;;;;5076077;28;20202;-75
2023/07/31 10:46:26;;;;;;;4.03;2.03;;;27.60;99.90;;;;;;5075240;28;20316;-74
2023/07/31 10:49:01;;;;;;;2.05;1.92;;;27.60;99.90;;;;;;5079444;28;20240;-76
2023/07/31 10:51:35;;;;;;;2.83;2.40;;;27.40;99.90;;;;;;5076477;28;20306;-78
2023/07/31 10:54:13;;;;;;;5.13;2.20;;;27.40;99.90;;;;;;5079821;28;20938;-78
2023/07/31 10:56:40;;;;;;;2.42;2.10;;;27.20;99.90;;;;;;5081524;28;20228;-76
2023/07/31 10:59:07;;;;;;;2.55;2.03;;;27.30;99.90;;;;;;5074447;28;20260;-78
2023/07/31 11:01:53;;;;;;;2.20;2.10;;;27.50;99.90;;;;;;5078560;28;20585;-77
2023/07/31 11:04:25;;;;;;;2.40;2.20;;;27.70;99.90;;;;;;5071271;28;20205;-78
2023/07/31 11:06:59;;;;;;;2.42;2.08;;;27.70;99.90;;;;;;5075505;28;20744;-77
2023/07/31 11:09:30;;;;;;;2.83;2.28;;;27.90;99.90;;;;;;5075528;28;20273;-78
2023/07/31 11:11:57;;;;;;;2.40;2.25;;;28.00;99.90;;;;;;5078252;28;20253;-77
2023/07/31 11:14:24;;;;;;;2.65;2.45;;;28.00;99.90;;;;;;5079941;28;20746;-78
2023/07/31 11:16:51;;;;;;;2.45;2.25;;;28.20;99.90;;;;;;5078275;28;20222;-77
2023/07/31 11:19:24;;;;;;;2.47;2.28;;;28.50;99.90;;;;;;5076836;28;20203;-79
2023/07/31 11:21:52;;;;;;;3.05;2.38;;;28.60;99.90;;;;;;5075683;28;20281;-77
2023/07/31 11:24:19;;;;;;;3.60;2.08;;;28.60;99.90;;;;;;5074445;28;20201;-77
2023/07/31 11:26:51;;;;;;;3.03;2.10;;;28.70;99.90;;;;;;5077229;28;20309;-77
2023/07/31 11:29:18;;;;;;;2.78;2.17;;;28.70;99.90;;;;;;5083773;28;20290;-78
2023/07/31 11:31:45;;;;;;;2.00;1.90;;;28.80;99.90;;;;;;5082672;28;20306;-78
2023/07/31 11:34:12;;;;;;;2.35;2.20;;;28.70;99.90;;;;;;5085295;28;20285;-78
2023/07/31 11:36:41;;;;;;;2.33;2.13;;;28.70;99.90;;;;;;5079119;28;20221;-77
2023/07/31 11:39:09;;;;;;;2.45;2.05;;;28.60;99.90;;;;;;5078498;28;20668;-77
2023/07/31 11:41:36;;;;;;;3.53;2.25;;;28.40;99.90;;;;;;5080395;28;20185;-77
2023/07/31 11:44:03;;;;;;;2.28;2.08;;;28.40;99.90;;;;;;5077373;28;20287;-78
2023/07/31 11:46:31;;;;;;;2.35;2.13;;;28.40;99.90;;;;;;5077069;28;20253;-77
2023/07/31 11:49:01;;;;;;;2.38;2.17;;;28.40;99.90;;;;;;5078592;28;20278;-78
2023/07/31 11:51:29;;;;;;;4.93;2.20;;;28.30;99.90;;;;;;5080566;28;20228;-78
2023/07/31 11:54:01;;;;;;;2.58;2.10;;;28.30;99.90;;;;;;5077471;28;20285;-77
2023/07/31 11:56:28;;;;;;;3.63;2.05;;;28.40;99.90;;;;;;5078383;28;20241;-77
2023/07/31 11:58:58;;;;;;;2.13;2.00;;;28.50;99.90;;;;;;5081031;28;20298;-77
2023/07/31 12:01:25;;;;;;;2.05;1.92;;;28.60;99.90;;;;;;5077296;28;20221;-77
2023/07/31 12:03:53;;;;;;;2.47;2.28;;;28.60;99.90;;;;;;5081293;28;20679;-78
2023/07/31 12:06:21;;;;;;;2.22;2.08;;;28.70;99.90;;;;;;5077643;28;20963;-77
2023/07/31 12:08:48;;;;;;;2.45;1.98;;;28.70;99.90;;;;;;5079915;28;20225;-78
2023/07/31 12:11:17;;;;;;;2.10;1.90;;;29.00;99.90;;;;;;5077267;28;20247;-78
2023/07/31 12:13:44;;;;;;;2.08;1.98;;;29.10;99.90;;;;;;5078335;28;20212;-77
2023/07/31 12:16:11;;;;;;;2.50;1.90;;;29.10;99.90;;;;;;5078120;28;20245;-78
2023/07/31 12:18:39;;;;;;;2.30;2.10;;;29.00;99.90;;;;;;5083309;28;20201;-77
2023/07/31 12:21:07;;;;;;;5.78;2.28;;;28.90;99.90;;;;;;5078075;28;20201;-77
2023/07/31 12:23:36;;;;;;;2.50;2.30;;;28.90;99.90;;;;;;5075801;28;20217;-78
2023/07/31 12:26:05;;;;;;;2.67;2.10;;;29.10;99.90;;;;;;5076497;28;21012;-78
2023/07/31 12:28:37;;;;;;;4.38;1.98;;;29.20;99.90;;;;;;5079326;28;20247;-77
2023/07/31 12:31:05;;;;;;;2.28;2.10;;;29.40;99.90;;;;;;5079721;28;20205;-77
2023/07/31 12:33:33;;;;;;;2.10;2.00;;;29.40;99.90;;;;;;5075236;28;20304;-77
2023/07/31 12:36:02;;;;;;;2.35;2.15;;;29.30;99.90;;;;;;5078845;28;20241;-77
2023/07/31 12:38:29;;;;;;;2.28;2.10;;;29.40;99.90;;;;;;5078295;28;20354;-77
2023/07/31 12:40:56;;;;;;;2.08;1.98;;;29.10;99.90;;;;;;5072957;28;20262;-77
2023/07/31 12:43:23;;;;;;;2.03;1.92;;;29.00;99.90;;;;;;5076907;28;20201;-77
2023/07/31 12:45:51;;;;;;;2.20;2.00;;;29.50;99.90;;;;;;5074570;28;20310;-78
2023/07/31 12:48:19;;;;;;;1.98;1.88;;;29.80;99.90;;;;;;5077838;28;20739;-77
2023/07/31 12:50:46;;;;;;;2.65;1.88;;;29.50;99.90;;;;;;5077654;28;20198;-77